Terminal Aerodrome Forecast
Issued by NWS

Home | Current Version | Previous Version | Text Only | Print | Product List | Glossary On
Versions: 1 2 3 4 5 6 7 8 9 10 11 12 13 14 15 16 17 18 19 20
776
FTUS44 KLIX 250520
TAFGPT
TAF
KGPT 250520Z 2506/2606 02003KT P6SM SKC
     FM250900 VRB03KT P6SM VCSH SCT025 BKN250
     FM251500 10010KT P6SM VCTS SCT035CB BKN050
      TEMPO 2517/2521 VRB15G25KT 1SM TSRA BR BKN030CB
     FM252300 13009KT P6SM SCT030 BKN050=

USA.gov is the U.S. government's official web portal to all federal, state and local government web resources and services.